.
WxDataArchive / Data Records for 2012-10-18
2012-10-17 October 2012 2012-10-19

Data Records for Thursday, 18 October 2012

Time	Temp	Chill	HIndex	Humid	Dewpt	 Wind 	HiWind	WindDir	Rain 	Barom 
-----	----	-----	------	-----	-----	------	------	-------	-----	----- 
00:00	62.4	62.4	62.4	72	53.2	1	5	112	0.03	29.484 
00:05	61.8	61.8	61.8	75	53.8	1	3	112	0.00	29.484 
00:10	61.2	61.2	61.2	77	53.9	1	3	90	0.00	29.484 
00:15	60.5	60.5	60.5	78	53.6	1	3	90	0.01	29.473 
00:20	60.2	60.2	60.2	79	53.7	0	2	90	0.00	29.473 
00:25	59.9	59.9	59.9	81	54.1	0	2	90	0.02	29.473 
00:30	59.6	59.6	59.6	82	54.1	1	3	135	0.00	29.465 
00:35	59.3	59.3	59.3	83	54.1	0	3	135	0.01	29.465 
00:40	59.0	59.0	59.0	83	53.8	1	3	90	0.00	29.465 
00:45	58.9	58.9	58.9	84	54.1	1	3	90	0.00	29.457 
00:50	58.7	58.7	58.7	83	53.5	1	4	90	0.00	29.457 
00:55	58.7	58.7	58.7	83	53.5	1	3	90	0.00	29.457 
01:00	58.7	58.7	58.7	83	53.5	2	5	68	0.00	29.444 
01:05	58.9	58.9	58.9	81	53.1	2	6	90	0.00	29.444 
01:10	59.0	59.0	59.0	80	52.8	2	4	112	0.00	29.444 
01:15	59.0	59.0	59.0	79	52.5	1	9	90	0.00	29.435 
01:20	59.2	59.2	59.2	78	52.3	1	5	112	0.00	29.435 
01:25	59.3	59.3	59.3	77	52.1	2	6	68	0.00	29.435 
01:30	59.5	59.5	59.5	77	52.3	1	3	135	0.00	29.428 
01:35	59.5	59.5	59.5	76	51.9	1	5	112	0.00	29.428 
01:40	59.5	59.5	59.5	76	51.9	1	3	112	0.00	29.428 
01:45	59.5	59.5	59.5	75	51.6	1	3	112	0.00	29.414 
01:50	59.5	59.5	59.5	75	51.6	1	4	135	0.00	29.414 
01:55	59.5	59.5	59.5	75	51.6	1	5	135	0.00	29.414 
02:00	59.5	59.5	59.5	74	51.2	1	4	112	0.00	29.412 
02:05	59.5	59.5	59.5	74	51.2	1	4	112	0.00	29.412 
02:10	59.5	59.5	59.5	74	51.2	1	4	112	0.00	29.412 
02:15	59.5	59.5	59.5	74	51.2	1	5	112	0.00	29.410 
02:20	59.5	59.5	59.5	73	50.8	1	3	112	0.00	29.410 
02:25	59.5	59.5	59.5	73	50.8	1	4	90	0.00	29.410 
02:30	59.5	59.5	59.5	73	50.8	1	3	68	0.00	29.410 
02:35	59.5	59.5	59.5	73	50.8	1	4	68	0.00	29.410 
02:40	59.5	59.5	59.5	73	50.8	1	3	112	0.00	29.410 
02:45	59.5	59.5	59.5	72	50.5	1	4	90	0.00	29.405 
02:50	59.5	59.5	59.5	72	50.5	0	3	112	0.00	29.405 
02:55	59.5	59.5	59.5	72	50.5	1	3	112	0.00	29.405 
03:00	59.3	59.3	59.3	72	50.3	1	4	112	0.00	29.403 
03:05	59.3	59.3	59.3	72	50.3	0	2	90	0.00	29.403 
03:10	59.3	59.3	59.3	72	50.3	1	4	112	0.00	29.403 
03:15	59.3	59.3	59.3	71	49.9	1	4	112	0.00	29.397 
03:20	59.3	59.3	59.3	71	49.9	1	3	90	0.00	29.397 
03:25	59.3	59.3	59.3	71	49.9	0	2	90	0.00	29.397 
03:30	59.3	59.3	59.3	70	49.5	1	4	135	0.00	29.382 
03:35	59.3	59.3	59.3	70	49.5	0	2	90	0.00	29.382 
03:40	59.3	59.3	59.3	70	49.5	0	2	90	0.00	29.382 
03:45	59.3	59.3	59.3	70	49.5	0	1	90	0.00	29.380 
03:50	59.3	59.3	59.3	70	49.5	0	2	90	0.00	29.380 
03:55	59.5	59.5	59.5	70	49.7	0	2	90	0.00	29.380 
04:00	59.5	59.5	59.5	70	49.7	0	3	90	0.00	29.367 
04:05	59.6	59.6	59.6	71	50.2	1	4	90	0.00	29.367 
04:10	59.8	59.8	59.8	71	50.4	1	6	270	0.00	29.367 
04:15	59.9	59.9	59.9	72	50.8	1	5	248	0.00	29.367 
04:20	59.9	59.9	59.9	72	50.8	1	5	315	0.00	29.367 
04:25	59.9	59.9	59.9	73	51.2	1	4	292	0.00	29.367 
04:30	59.8	59.8	59.8	73	51.1	1	4	248	0.00	29.363 
04:35	59.6	59.6	59.6	75	51.7	1	5	248	0.00	29.363 
04:40	59.3	59.3	59.3	78	52.4	1	3	225	0.00	29.363 
04:45	58.9	58.9	58.9	80	52.7	0	2	248	0.01	29.363 
04:50	58.4	58.4	58.4	82	52.9	1	5	248	0.00	29.363 
04:55	58.0	58.0	58.0	84	53.2	1	6	0	0.01	29.363 
05:00	57.5	57.5	57.5	85	53.0	2	5	270	0.00	29.357 
05:05	57.2	57.2	57.2	86	53.0	2	5	270	0.00	29.357 
05:10	56.9	56.9	56.9	87	53.1	1	7	68	0.00	29.357 
05:15	56.7	56.7	56.7	88	53.2	1	3	248	0.01	29.361 
05:20	56.6	56.6	56.6	88	53.1	1	6	90	0.00	29.361 
05:25	56.5	56.5	56.5	89	53.3	1	4	90	0.01	29.361 
05:30	56.3	56.3	56.3	90	53.4	1	3	90	0.01	29.359 
05:35	56.2	56.2	56.2	90	53.3	1	6	68	0.01	29.359 
05:40	56.0	56.0	56.0	91	53.4	2	7	112	0.01	29.359 
05:45	55.9	55.9	55.9	91	53.3	1	5	22	0.00	29.355 
05:50	55.9	55.9	55.9	91	53.3	1	4	90	0.01	29.355 
05:55	55.7	55.7	55.7	92	53.4	1	3	68	0.00	29.355 
06:00	55.7	55.7	55.7	92	53.4	1	5	112	0.00	29.355 
06:05	55.7	55.7	55.7	92	53.4	2	6	68	0.01	29.355 
06:10	55.6	55.6	55.6	92	53.3	1	4	90	0.00	29.355 
06:15	55.6	55.6	55.6	92	53.3	1	5	90	0.01	29.360 
06:20	55.6	55.6	55.6	92	53.3	1	4	90	0.00	29.360 
06:25	55.4	55.4	55.4	93	53.4	1	5	90	0.01	29.360 
06:30	54.8	54.8	54.8	92	52.5	4	13	270	0.02	29.379 
06:35	53.2	53.2	53.2	91	50.6	4	7	270	0.01	29.379 
06:40	52.5	52.5	52.5	91	49.9	3	10	270	0.00	29.379 
06:45	51.9	51.9	51.9	91	49.4	2	4	292	0.01	29.395 
06:50	51.6	51.6	51.6	92	49.4	1	5	248	0.01	29.395 
06:55	51.4	51.4	51.4	92	49.2	1	3	248	0.01	29.395 
07:00	51.3	51.3	51.3	92	49.1	1	4	248	0.01	29.411 
07:05	51.0	51.0	51.0	92	48.8	2	7	248	0.01	29.411 
07:10	51.0	51.0	51.0	92	48.8	2	7	248	0.02	29.411 
07:15	50.7	50.7	50.7	92	48.5	3	11	270	0.01	29.424 
07:20	50.5	50.5	50.5	93	48.6	3	10	248	0.01	29.424 
07:25	50.4	50.4	50.4	93	48.5	2	12	248	0.01	29.424 
07:30	50.1	50.1	50.1	93	48.2	3	7	270	0.00	29.433 
07:35	49.9	49.9	49.9	93	48.0	2	4	270	0.01	29.433 
07:40	49.8	49.8	49.8	93	47.9	2	9	248	0.01	29.433 
07:45	49.6	49.6	49.6	93	47.7	1	4	248	0.01	29.435 
07:50	49.4	49.4	49.4	93	47.5	2	5	248	0.01	29.435 
07:55	48.9	48.9	48.9	93	47.0	1	3	248	0.01	29.435 
08:00	48.8	48.8	48.8	93	46.9	1	5	248	0.00	29.442 
08:05	48.8	48.8	48.8	93	46.9	1	4	248	0.00	29.442 
08:10	48.8	48.8	48.8	93	46.9	1	7	248	0.00	29.442 
08:15	48.9	48.9	48.9	93	47.0	2	6	248	0.00	29.448 
08:20	48.8	48.8	48.8	93	46.9	1	4	248	0.00	29.448 
08:25	48.8	48.8	48.8	93	46.9	1	5	270	0.00	29.448 
08:30	48.8	48.8	48.8	93	46.9	2	6	270	0.00	29.452 
08:35	48.8	48.8	48.8	93	46.9	2	4	248	0.00	29.452 
08:40	48.8	48.8	48.8	93	46.9	1	3	248	0.00	29.452 
08:45	48.6	48.6	48.6	93	46.7	1	3	248	0.00	29.461 
08:50	48.6	48.6	48.6	93	46.7	2	6	248	0.00	29.461 
08:55	48.5	48.5	48.5	92	46.3	1	5	248	0.00	29.461 
09:00	48.5	48.5	48.5	92	46.3	1	3	248	0.00	29.463 
09:05	48.6	48.6	48.6	92	46.4	1	3	248	0.00	29.463 
09:10	48.8	48.8	48.8	92	46.6	1	3	248	0.00	29.463 
09:15	48.8	48.8	48.8	91	46.3	2	7	248	0.00	29.480 
09:20	48.6	48.6	48.6	91	46.1	2	5	248	0.00	29.480 
09:25	48.5	48.5	48.5	89	45.4	3	9	270	0.00	29.480 
09:30	48.5	48.5	48.5	88	45.1	2	7	248	0.00	29.481 
09:35	48.5	48.5	48.5	87	44.8	2	9	248	0.00	29.481 
09:40	48.5	48.5	48.5	86	44.5	2	6	248	0.00	29.481 
09:45	48.6	48.6	48.6	85	44.3	2	6	248	0.00	29.494 
09:50	48.8	48.8	48.8	85	44.5	1	5	270	0.00	29.494 
09:55	48.9	48.9	48.9	84	44.3	2	5	248	0.00	29.494 
10:00	49.1	49.1	49.1	83	44.2	3	6	270	0.00	29.493 
10:05	49.8	49.8	49.8	81	44.2	2	7	270	0.00	29.493 
10:10	50.1	50.1	50.1	79	43.8	2	7	248	0.00	29.493 
10:15	50.2	50.2	50.2	78	43.6	2	9	248	0.00	29.498 
10:20	50.5	50.5	50.5	76	43.2	2	7	270	0.00	29.498 
10:25	50.7	50.7	50.7	75	43.1	3	7	248	0.00	29.498 
10:30	50.5	50.5	50.5	74	42.5	4	12	270	0.00	29.505 
10:35	50.7	50.7	50.7	73	42.4	4	9	248	0.00	29.505 
10:40	50.7	50.7	50.7	73	42.4	4	9	248	0.00	29.505 
10:45	51.0	51.0	51.0	73	42.7	3	9	270	0.00	29.509 
10:50	51.3	51.3	51.3	72	42.6	4	9	248	0.00	29.509 
10:55	51.6	51.6	51.6	69	41.8	3	10	248	0.00	29.509 
11:00	51.7	51.7	51.7	68	41.5	3	6	248	0.00	29.513 
11:05	52.3	52.3	52.3	67	41.7	2	5	292	0.00	29.513 
11:10	52.8	52.8	52.8	65	41.4	2	6	248	0.00	29.513 
11:15	53.2	53.2	53.2	62	40.5	3	9	270	0.00	29.521 
11:20	53.2	53.2	53.2	60	39.7	3	6	270	0.00	29.521 
11:25	53.3	53.3	53.3	59	39.3	3	7	248	0.00	29.521 
11:30	53.5	53.5	53.5	57	38.6	3	10	270	0.00	29.524 
11:35	53.8	53.8	53.8	57	38.9	3	7	270	0.00	29.524 
11:40	53.9	53.9	53.9	57	39.0	3	7	248	0.00	29.524 
11:45	53.8	53.8	53.8	56	38.5	3	7	248	0.00	29.535 
11:50	53.9	53.9	53.9	58	39.5	2	5	248	0.00	29.535 
11:55	54.4	54.4	54.4	59	40.4	2	5	248	0.00	29.535 
12:00	54.7	54.7	54.7	56	39.3	2	5	270	0.00	29.538 
12:05	55.1	55.1	55.1	56	39.7	1	5	248	0.00	29.538 
12:10	55.6	55.6	55.6	53	38.7	2	6	248	0.00	29.538 
12:15	55.3	55.3	55.3	51	37.5	5	12	270	0.00	29.544 
12:20	55.0	55.0	55.0	53	38.2	3	10	270	0.00	29.544 
12:25	55.3	55.3	55.3	53	38.5	2	7	248	0.00	29.544 
12:30	55.6	55.6	55.6	53	38.7	3	9	248	0.00	29.542 
12:35	56.0	56.0	56.0	52	38.6	3	6	270	0.00	29.542 
12:40	56.3	56.3	56.3	50	37.9	2	7	270	0.00	29.542 
12:45	56.5	56.5	56.5	50	38.1	2	6	248	0.00	29.543 
12:50	56.5	56.5	56.5	49	37.6	2	7	248	0.00	29.543 
12:55	56.7	56.7	56.7	50	38.3	2	7	90	0.00	29.543 
13:00	56.6	56.6	56.6	49	37.7	2	7	248	0.00	29.539 
13:05	56.7	56.7	56.7	48	37.2	2	8	248	0.00	29.539 
13:10	57.0	57.0	57.0	49	38.0	2	7	248	0.00	29.539 
13:15	57.6	57.6	57.6	47	37.5	2	6	248	0.00	29.535 
13:20	58.0	58.0	58.0	46	37.3	3	10	270	0.00	29.535 
13:25	58.1	58.1	58.1	46	37.4	2	7	270	0.00	29.535 
13:30	58.3	58.3	58.3	46	37.6	2	7	270	0.00	29.535 
13:35	58.3	58.3	58.3	45	37.1	3	10	270	0.00	29.535 
13:40	58.3	58.3	58.3	44	36.5	3	9	248	0.00	29.535 
13:45	58.4	58.4	58.4	43	36.0	3	12	90	0.00	29.531 
13:50	58.6	58.6	58.6	45	37.3	2	9	248	0.00	29.531 
13:55	59.0	59.0	59.0	44	37.1	2	9	90	0.00	29.531 
14:00	59.2	59.2	59.2	43	36.7	3	9	248	0.00	29.530 
14:05	59.2	59.2	59.2	43	36.7	3	13	248	0.00	29.530 
14:10	59.8	59.8	59.8	43	37.3	2	10	248	0.00	29.530 
14:15	60.2	60.2	60.2	41	36.4	2	6	292	0.00	29.524 
14:20	59.8	59.8	59.8	40	35.4	2	6	248	0.00	29.524 
14:25	58.9	58.9	58.9	40	34.6	2	11	270	0.00	29.524 
14:30	58.7	58.7	58.7	43	36.3	3	6	248	0.00	29.521 
14:35	58.4	58.4	58.4	43	36.0	3	12	248	0.00	29.521 
14:40	58.1	58.1	58.1	43	35.7	3	11	248	0.00	29.521 
14:45	58.3	58.3	58.3	43	35.9	2	7	315	0.00	29.527 
14:50	58.9	58.9	58.9	41	35.2	3	11	248	0.00	29.527 
14:55	58.9	58.9	58.9	39	34.0	3	8	248	0.00	29.527 
15:00	58.9	58.9	58.9	40	34.6	3	11	248	0.00	29.522 
15:05	58.9	58.9	58.9	39	34.0	3	11	248	0.00	29.522 
15:10	59.5	59.5	59.5	39	34.5	3	14	248	0.00	29.522 
15:15	59.5	59.5	59.5	34	31.1	3	10	248	0.00	29.519 
15:20	59.2	59.2	59.2	37	32.9	2	6	248	0.00	29.519 
15:25	59.5	59.5	59.5	38	33.9	2	9	248	0.00	29.519 
15:30	59.5	59.5	59.5	38	33.9	2	5	248	0.00	29.519 
15:35	59.0	59.0	59.0	39	34.1	3	9	248	0.00	29.519 
15:40	59.0	59.0	59.0	41	35.3	2	7	248	0.00	29.519 
15:45	59.0	59.0	59.0	41	35.3	2	6	248	0.00	29.522 
15:50	58.9	58.9	58.9	42	35.9	1	5	248	0.00	29.522 
15:55	58.9	58.9	58.9	43	36.4	1	3	90	0.00	29.522 
16:00	58.9	58.9	58.9	43	36.4	1	6	248	0.00	29.526 
16:05	58.9	58.9	58.9	42	35.9	1	6	248	0.00	29.526 
16:10	58.9	58.9	58.9	38	33.3	2	6	248	0.00	29.526 
16:15	59.2	59.2	59.2	37	32.9	2	9	248	0.00	29.533 
16:20	59.6	59.6	59.6	36	32.6	2	7	248	0.00	29.533 
16:25	59.9	59.9	59.9	36	32.9	1	4	270	0.00	29.533 
16:30	60.2	60.2	60.2	34	31.7	2	9	270	0.00	29.534 
16:35	60.2	60.2	60.2	35	32.4	2	6	248	0.00	29.534 
16:40	60.5	60.5	60.5	32	30.5	3	9	248	0.00	29.534 
16:45	60.7	60.7	60.7	31	29.9	3	7	248	0.00	29.535 
16:50	60.7	60.7	60.7	33	31.4	2	4	248	0.00	29.535 
16:55	60.7	60.7	60.7	32	30.7	2	4	270	0.00	29.535 
17:00	60.7	60.7	60.7	33	31.4	1	6	248	0.00	29.536 
17:05	60.5	60.5	60.5	32	30.5	3	12	248	0.00	29.536 
17:10	60.5	60.5	60.5	32	30.5	2	7	248	0.00	29.536 
17:15	60.4	60.4	60.4	32	30.4	1	7	248	0.00	29.542 
17:20	59.9	59.9	59.9	33	30.7	2	5	248	0.00	29.542 
17:25	59.6	59.6	59.6	32	29.7	2	6	248	0.00	29.542 
17:30	59.5	59.5	59.5	33	30.4	1	6	225	0.00	29.544 
17:35	59.3	59.3	59.3	33	30.2	2	9	270	0.00	29.544 
17:40	59.3	59.3	59.3	34	30.9	1	6	248	0.00	29.544 
17:45	59.0	59.0	59.0	35	31.4	1	5	90	0.00	29.547 
17:50	58.6	58.6	58.6	34	30.3	1	5	45	0.00	29.547 
17:55	58.3	58.3	58.3	33	29.3	2	6	248	0.00	29.547 
18:00	58.1	58.1	58.1	34	29.9	1	4	248	0.00	29.553 
18:05	57.8	57.8	57.8	35	30.3	0	2	270	0.00	29.553 
18:10	57.6	57.6	57.6	35	30.2	1	4	270	0.00	29.553 
18:15	57.6	57.6	57.6	35	30.2	1	3	248	0.00	29.566 
18:20	57.6	57.6	57.6	36	30.8	1	5	248	0.00	29.566 
18:25	57.6	57.6	57.6	35	30.2	3	9	248	0.00	29.566 
18:30	57.6	57.6	57.6	36	30.8	1	4	248	0.00	29.572 
18:35	57.5	57.5	57.5	35	30.1	1	6	248	0.00	29.572 
18:40	57.5	57.5	57.5	36	30.8	1	5	248	0.00	29.572 
18:45	57.3	57.3	57.3	36	30.6	1	6	248	0.00	29.575 
18:50	57.2	57.2	57.2	37	31.2	0	2	248	0.00	29.575 
18:55	57.0	57.0	57.0	38	31.6	0	2	248	0.00	29.575 
19:00	56.7	56.7	56.7	38	31.4	0	2	248	0.00	29.578 
19:05	56.6	56.6	56.6	39	31.9	1	4	248	0.00	29.578 
19:10	56.6	56.6	56.6	39	31.9	1	4	248	0.00	29.578 
19:15	56.5	56.5	56.5	39	31.8	0	3	248	0.00	29.591 
19:20	56.3	56.3	56.3	40	32.3	0	2	248	0.00	29.591 
19:25	56.2	56.2	56.2	41	32.8	0	3	270	0.00	29.591 
19:30	55.9	55.9	55.9	42	33.1	0	2	135	0.00	29.599 
19:35	55.9	55.9	55.9	43	33.7	0	3	315	0.00	29.599 
19:40	55.7	55.7	55.7	44	34.1	0	2	315	0.00	29.599 
19:45	55.6	55.6	55.6	44	34.0	1	4	248	0.00	29.608 
19:50	55.4	55.4	55.4	45	34.4	0	2	225	0.00	29.608 
19:55	55.1	55.1	55.1	47	35.2	0	1	225	0.00	29.608 
20:00	54.7	54.7	54.7	48	35.4	0	2	225	0.00	29.612 
20:05	54.4	54.4	54.4	50	36.2	1	4	68	0.00	29.612 
20:10	54.2	54.2	54.2	50	36.0	1	3	315	0.00	29.612 
20:15	54.1	54.1	54.1	51	36.4	0	2	248	0.00	29.621 
20:20	53.8	53.8	53.8	51	36.1	1	3	248	0.00	29.621 
20:25	53.6	53.6	53.6	51	35.9	1	9	248	0.00	29.621 
20:30	53.5	53.5	53.5	52	36.3	0	3	292	0.00	29.623 
20:35	53.3	53.3	53.3	52	36.1	1	4	270	0.00	29.623 
20:40	53.2	53.2	53.2	53	36.5	1	3	248	0.00	29.623 
20:45	53.1	53.1	53.1	54	36.9	1	3	270	0.00	29.626 
20:50	52.9	52.9	52.9	54	36.7	0	1	68	0.00	29.626 
20:55	52.6	52.6	52.6	55	36.9	0	1	68	0.00	29.626 
21:00	52.3	52.3	52.3	55	36.6	0	3	270	0.00	29.629 
21:05	52.0	52.0	52.0	56	36.8	0	1	270	0.00	29.629 
21:10	51.9	51.9	51.9	57	37.1	0	1	270	0.00	29.629 
21:15	51.6	51.6	51.6	58	37.3	0	1	270	0.00	29.630 
21:20	51.3	51.3	51.3	58	37.0	0	0	---	0.00	29.630 
21:25	51.1	51.1	51.1	59	37.3	0	1	270	0.00	29.630 
21:30	50.8	50.8	50.8	59	37.0	0	1	270	0.00	29.632 
21:35	50.7	50.7	50.7	60	37.3	0	1	270	0.00	29.632 
21:40	50.4	50.4	50.4	60	37.0	0	2	270	0.00	29.632 
21:45	50.2	50.2	50.2	61	37.3	0	1	270	0.00	29.631 
21:50	49.9	49.9	49.9	61	37.0	0	1	270	0.00	29.631 
21:55	49.8	49.8	49.8	62	37.3	0	1	270	0.00	29.631 
22:00	49.5	49.5	49.5	62	37.0	0	1	270	0.00	29.638 
22:05	49.4	49.4	49.4	62	36.9	0	1	270	0.00	29.638 
22:10	49.4	49.4	49.4	63	37.3	0	1	270	0.00	29.638 
22:15	49.4	49.4	49.4	63	37.3	0	1	270	0.00	29.640 
22:20	49.2	49.2	49.2	63	37.1	0	0	---	0.00	29.640 
22:25	49.2	49.2	49.2	63	37.1	0	0	---	0.00	29.640 
22:30	49.1	49.1	49.1	64	37.5	0	0	---	0.00	29.637 
22:35	48.9	48.9	48.9	65	37.7	0	0	---	0.00	29.637 
22:40	48.8	48.8	48.8	65	37.6	0	0	---	0.00	29.637 
22:45	48.6	48.6	48.6	65	37.4	0	1	270	0.00	29.638 
22:50	48.5	48.5	48.5	65	37.3	0	0	---	0.00	29.638 
22:55	48.3	48.3	48.3	65	37.1	0	0	---	0.00	29.638 
23:00	48.2	48.2	48.2	65	37.0	0	0	---	0.00	29.629 
23:05	48.0	48.0	48.0	66	37.2	0	0	---	0.00	29.629 
23:10	47.9	47.9	47.9	67	37.5	0	0	---	0.00	29.629 
23:15	47.7	47.7	47.7	68	37.7	0	0	---	0.00	29.621 
23:20	47.6	47.6	47.6	69	37.9	0	1	270	0.00	29.621 
23:25	47.4	47.4	47.4	70	38.1	0	1	270	0.00	29.621 
23:30	47.3	47.3	47.3	70	38.0	0	0	---	0.00	29.624 
23:35	47.3	47.3	47.3	70	38.0	0	0	---	0.00	29.624 
23:40	47.1	47.1	47.1	71	38.2	0	0	---	0.00	29.624 
23:45	47.0	47.0	47.0	72	38.4	0	0	---	0.00	29.626 
23:50	46.8	46.8	46.8	72	38.3	0	0	---	0.00	29.626 
23:55	46.7	46.7	46.7	73	38.5	0	0	---	0.00	29.626 

CoCoRaHS
IN-AL-39
A2 Web Hosting
Creative Commons License
GoDaddy
search engine by freefind advanced

loaded 2018-11-15 03:00:41 • last modified 2010-11-18 10:43:29
Privacy PolicyDisclaimer
• wx.awcolley.com is powered by PmWiki v.2002016 •
• all content (unless otherwise noted) © 2018 A W Colley